Time;durP1;ratioP1;P1;durP2;ratioP2;P2;SDS_P1;SDS_P2;PMS_P1;PMS_P2;Temp;Humidity;BMP_temperature;BMP_pressure;BME280_temperature;BME280_humidity;BME280_pressure;Samples;Min_cycle;Max_cycle;Signal;HPM_P1;HPM_P2
2022/07/30 00:01:11;;;;;;;1999.90;999.90;;;17.60;99.90;;;;;;4935578;29;20200;-64
2022/07/30 00:03:38;;;;;;;1999.90;999.90;;;17.50;99.90;;;;;;4935400;29;20210;-64
2022/07/30 00:06:05;;;;;;;1999.90;999.90;;;17.50;99.90;;;;;;4935128;29;20214;-64
2022/07/30 00:08:32;;;;;;;1999.90;999.90;;;17.50;99.90;;;;;;4935175;29;20229;-64
2022/07/30 00:10:59;;;;;;;1999.90;999.90;;;17.40;99.90;;;;;;4935424;29;20203;-64
2022/07/30 00:13:26;;;;;;;1999.90;999.90;;;17.40;99.90;;;;;;4935134;29;20568;-64
2022/07/30 00:15:54;;;;;;;1999.90;999.90;;;17.40;99.90;;;;;;4935374;29;20210;-64
2022/07/30 00:18:21;;;;;;;1999.90;999.90;;;17.40;99.90;;;;;;4935154;29;20254;-64
2022/07/30 00:20:49;;;;;;;1999.90;999.90;;;17.30;99.90;;;;;;4935030;29;20717;-64
2022/07/30 00:23:16;;;;;;;1999.90;999.90;;;17.30;99.90;;;;;;4934969;29;20592;-64
2022/07/30 00:25:43;;;;;;;1999.90;999.90;;;17.30;99.90;;;;;;4935300;29;20208;-64
2022/07/30 00:28:10;;;;;;;1999.90;999.90;;;17.30;99.90;;;;;;4935244;29;20201;-64
2022/07/30 00:30:39;;;;;;;1999.90;999.90;;;17.30;99.90;;;;;;4935228;29;20213;-64
2022/07/30 00:33:07;;;;;;;1999.90;999.90;;;17.20;99.90;;;;;;4935226;29;20216;-64
2022/07/30 00:35:34;;;;;;;1999.90;999.90;;;17.20;99.90;;;;;;4934859;29;20733;-64
2022/07/30 00:38:01;;;;;;;1999.90;999.90;;;17.20;99.90;;;;;;4935127;29;20202;-64
2022/07/30 00:40:28;;;;;;;1999.90;999.90;;;17.20;99.90;;;;;;4934825;29;20198;-64
2022/07/30 00:42:56;;;;;;;1999.90;999.90;;;17.20;99.90;;;;;;4935004;29;20255;-64
2022/07/30 00:45:23;;;;;;;1999.90;999.90;;;17.10;99.90;;;;;;4935106;29;20196;-64
2022/07/30 00:47:50;;;;;;;1999.90;999.90;;;17.10;99.90;;;;;;4934625;29;20238;-64
2022/07/30 00:50:18;;;;;;;1999.90;999.90;;;17.10;99.90;;;;;;4935040;29;20212;-64
2022/07/30 00:52:46;;;;;;;1999.90;999.90;;;17.10;99.90;;;;;;4935043;29;20192;-64
2022/07/30 00:55:15;;;;;;;1999.90;999.90;;;17.00;99.90;;;;;;4935020;29;20208;-64
2022/07/30 00:57:42;;;;;;;1999.90;999.90;;;17.00;99.90;;;;;;4934732;29;20670;-64
2022/07/30 01:00:13;;;;;;;1999.90;999.90;;;17.00;99.90;;;;;;4934964;29;20197;-64
2022/07/30 01:02:40;;;;;;;1999.90;999.90;;;16.90;99.90;;;;;;4935022;29;20195;-64
2022/07/30 01:05:08;;;;;;;1999.90;999.90;;;16.90;99.90;;;;;;4934562;29;20228;-64
2022/07/30 01:07:37;;;;;;;1999.90;999.90;;;16.90;99.90;;;;;;4934851;29;20197;-63
2022/07/30 01:10:05;;;;;;;1999.90;999.90;;;16.80;99.90;;;;;;4934956;29;20199;-64
2022/07/30 01:12:32;;;;;;;1999.90;999.90;;;16.80;99.90;;;;;;4934535;29;20196;-64
2022/07/30 01:15:03;;;;;;;1999.90;999.90;;;16.70;99.90;;;;;;4934909;29;20196;-64
2022/07/30 01:17:30;;;;;;;1999.90;999.90;;;16.70;99.90;;;;;;4934344;29;20185;-63
2022/07/30 01:20:02;;;;;;;1999.90;999.90;;;16.70;99.90;;;;;;4934510;29;20900;-64
2022/07/30 01:22:51;;;;;;;1999.90;999.90;;;16.70;99.90;;;;;;4935330;29;20647;-64
2022/07/30 01:25:27;;;;;;;1999.90;999.90;;;16.70;99.90;;;;;;4938325;29;20210;-63
2022/07/30 01:28:00;;;;;;;1999.90;999.90;;;16.60;99.90;;;;;;4938002;29;20189;-64
2022/07/30 01:30:31;;;;;;;1999.90;999.90;;;16.60;99.90;;;;;;4937908;29;20196;-63
2022/07/30 01:32:59;;;;;;;1999.90;999.90;;;16.60;99.90;;;;;;4937818;29;20197;-63
2022/07/30 01:35:29;;;;;;;1999.90;999.90;;;16.60;99.90;;;;;;4937699;29;20209;-64
2022/07/30 01:37:57;;;;;;;1999.90;999.90;;;16.70;99.90;;;;;;4938045;29;20208;-64
2022/07/30 01:40:27;;;;;;;1999.90;999.90;;;16.60;99.90;;;;;;4937719;29;20558;-63
2022/07/30 01:42:59;;;;;;;1999.90;999.90;;;16.60;99.90;;;;;;4937684;29;20192;-64
2022/07/30 01:45:29;;;;;;;1999.90;999.90;;;16.60;99.90;;;;;;4937983;29;20199;-64
2022/07/30 01:47:59;;;;;;;1999.90;999.90;;;16.60;99.90;;;;;;4937229;29;20236;-64
2022/07/30 01:50:27;;;;;;;1999.90;999.90;;;16.60;99.90;;;;;;4937860;29;20205;-64
2022/07/30 01:52:57;;;;;;;1999.90;999.90;;;16.50;99.90;;;;;;4937528;29;20226;-64
2022/07/30 01:55:30;;;;;;;1999.90;999.90;;;16.50;99.90;;;;;;4937352;29;20210;-64
2022/07/30 01:58:00;;;;;;;1999.90;999.90;;;16.50;99.90;;;;;;4937510;29;20198;-64
2022/07/30 02:00:30;;;;;;;1999.90;999.90;;;16.40;99.90;;;;;;4937452;29;20659;-64
2022/07/30 02:02:58;;;;;;;1999.90;999.90;;;16.40;99.90;;;;;;4937377;29;20655;-64
2022/07/30 02:05:26;;;;;;;1999.90;999.90;;;16.40;99.90;;;;;;4937498;29;20212;-64
2022/07/30 02:07:58;;;;;;;1999.90;999.90;;;16.30;99.90;;;;;;4937215;29;20692;-64
2022/07/30 02:10:33;;;;;;;1999.90;999.90;;;16.30;99.90;;;;;;4937505;29;20185;-64
2022/07/30 02:13:06;;;;;;;1999.90;999.90;;;16.30;99.90;;;;;;4937171;29;20187;-64
2022/07/30 02:15:38;;;;;;;1999.90;999.90;;;16.20;99.90;;;;;;4937386;29;20193;-64
2022/07/30 02:18:19;;;;;;;1999.90;999.90;;;16.20;99.90;;;;;;4936798;29;20189;-64
2022/07/30 02:20:51;;;;;;;1999.90;999.90;;;16.20;99.90;;;;;;4937343;29;20191;-64
2022/07/30 02:23:21;;;;;;;1999.90;999.90;;;16.10;99.90;;;;;;4936927;29;20185;-64
2022/07/30 02:25:50;;;;;;;1999.90;999.90;;;16.10;99.90;;;;;;4936848;29;20199;-64
2022/07/30 02:28:21;;;;;;;1999.90;999.90;;;16.10;99.90;;;;;;4937165;29;20200;-64
2022/07/30 02:30:52;;;;;;;1999.90;999.90;;;16.00;99.90;;;;;;4936867;29;20210;-64
2022/07/30 02:33:23;;;;;;;1999.90;999.90;;;16.00;99.90;;;;;;4936825;29;20556;-64
2022/07/30 02:35:52;;;;;;;1999.90;999.90;;;15.90;99.90;;;;;;4936467;29;20184;-64
2022/07/30 02:38:20;;;;;;;1999.90;999.90;;;15.90;99.90;;;;;;4936603;29;20231;-65
2022/07/30 02:40:49;;;;;;;1999.90;999.90;;;15.90;99.90;;;;;;4936929;29;20217;-64
2022/07/30 02:43:19;;;;;;;1999.90;999.90;;;15.90;99.90;;;;;;4936583;29;20741;-64
2022/07/30 02:45:48;;;;;;;1999.90;999.90;;;15.80;99.90;;;;;;4936554;29;20200;-63
2022/07/30 02:48:17;;;;;;;1999.90;999.90;;;15.60;99.90;;;;;;4936018;29;20235;-64
2022/07/30 02:50:45;;;;;;;1999.90;999.90;;;15.40;99.90;;;;;;4936388;29;20227;-63
2022/07/30 02:53:15;;;;;;;1999.90;999.90;;;15.20;99.90;;;;;;4936080;29;20204;-64
2022/07/30 02:55:45;;;;;;;1999.90;999.90;;;15.00;99.90;;;;;;4936615;29;20203;-64
2022/07/30 02:58:15;;;;;;;1999.90;999.90;;;14.90;99.90;;;;;;4936221;29;20669;-64
2022/07/30 03:00:43;;;;;;;1999.90;999.90;;;15.00;99.90;;;;;;4936286;29;20202;-64
2022/07/30 03:03:13;;;;;;;1999.90;999.90;;;14.90;99.90;;;;;;4936437;29;20199;-64
2022/07/30 03:05:41;;;;;;;1999.90;999.90;;;14.70;99.90;;;;;;4935985;29;20224;-63
2022/07/30 03:08:09;;;;;;;1999.90;999.90;;;14.50;99.90;;;;;;4936152;29;20222;-64
2022/07/30 03:10:37;;;;;;;1999.90;999.90;;;14.40;99.90;;;;;;4936275;29;20307;-63
2022/07/30 03:13:06;;;;;;;1999.90;999.90;;;14.70;99.90;;;;;;4936072;29;20204;-64
2022/07/30 03:15:36;;;;;;;1999.90;999.90;;;14.90;99.90;;;;;;4936237;29;20206;-64
2022/07/30 03:18:05;;;;;;;1999.90;999.90;;;15.00;99.90;;;;;;4936029;29;20642;-63
2022/07/30 03:20:35;;;;;;;1999.90;999.90;;;15.10;99.90;;;;;;4936164;29;20199;-64
2022/07/30 03:23:04;;;;;;;1999.90;999.90;;;15.30;99.90;;;;;;4936174;29;20187;-64
2022/07/30 03:25:32;;;;;;;1999.90;999.90;;;15.30;99.90;;;;;;4935687;29;20222;-64
2022/07/30 03:28:02;;;;;;;1999.90;999.90;;;15.30;99.90;;;;;;4936011;29;20212;-64
2022/07/30 03:30:31;;;;;;;1999.90;999.90;;;15.40;99.90;;;;;;4935970;29;20210;-64
2022/07/30 03:32:58;;;;;;;1999.90;999.90;;;15.40;99.90;;;;;;4936018;29;20192;-64
2022/07/30 03:35:26;;;;;;;1999.90;999.90;;;15.50;99.90;;;;;;4935536;29;20211;-64
2022/07/30 03:37:56;;;;;;;1999.90;999.90;;;15.50;99.90;;;;;;4935942;29;20199;-63
2022/07/30 03:40:23;;;;;;;1999.90;999.90;;;15.60;99.90;;;;;;4936147;29;20202;-64
2022/07/30 03:42:51;;;;;;;1999.90;999.90;;;15.70;99.90;;;;;;4935773;29;20206;-64
2022/07/30 03:45:19;;;;;;;1999.90;999.90;;;15.70;99.90;;;;;;4935169;29;20239;-64
2022/07/30 03:47:47;;;;;;;1999.90;999.90;;;15.80;99.90;;;;;;4935072;29;20228;-63
2022/07/30 03:50:14;;;;;;;1999.90;999.90;;;15.90;99.90;;;;;;4935755;29;20660;-64
2022/07/30 03:52:43;;;;;;;1999.90;999.90;;;15.90;99.90;;;;;;4935690;29;20207;-64
2022/07/30 03:55:12;;;;;;;1999.90;999.90;;;15.90;99.90;;;;;;4935613;29;20214;-64
2022/07/30 03:57:39;;;;;;;1999.90;999.90;;;15.90;99.90;;;;;;4935596;29;20204;-63
2022/07/30 04:00:12;;;;;;;1999.90;999.90;;;16.00;99.90;;;;;;4935620;29;20200;-64
2022/07/30 04:02:42;;;;;;;1999.90;999.90;;;16.00;99.90;;;;;;4935485;29;20196;-64
2022/07/30 04:05:10;;;;;;;1999.90;999.90;;;16.10;99.90;;;;;;4935122;29;20220;-63
2022/07/30 04:07:38;;;;;;;1999.90;999.90;;;16.10;99.90;;;;;;4935460;29;20212;-64
2022/07/30 04:10:06;;;;;;;1999.90;999.90;;;16.20;99.90;;;;;;4935433;29;20204;-63
2022/07/30 04:12:35;;;;;;;1999.90;999.90;;;16.20;99.90;;;;;;4935388;29;20204;-64
2022/07/30 04:15:02;;;;;;;1999.90;999.90;;;16.30;99.90;;;;;;4935065;29;20195;-63
2022/07/30 04:17:35;;;;;;;1999.90;999.90;;;16.30;99.90;;;;;;4934835;29;20208;-64
2022/07/30 04:20:06;;;;;;;1999.90;999.90;;;16.30;99.90;;;;;;4935086;29;20180;-63
2022/07/30 04:22:36;;;;;;;1999.90;999.90;;;16.40;99.90;;;;;;4935024;29;20187;-63
2022/07/30 04:25:06;;;;;;;1999.90;999.90;;;16.40;99.90;;;;;;4935296;29;20229;-63
2022/07/30 04:27:35;;;;;;;1999.90;999.90;;;16.40;99.90;;;;;;4935254;29;20261;-64
2022/07/30 04:30:03;;;;;;;1999.90;999.90;;;16.40;99.90;;;;;;4935190;29;20205;-64
2022/07/30 04:32:30;;;;;;;1999.90;999.90;;;16.30;99.90;;;;;;4935090;29;20209;-63
2022/07/30 04:34:58;;;;;;;1999.90;999.90;;;16.30;99.90;;;;;;4935228;29;20197;-63
2022/07/30 04:37:27;;;;;;;1999.90;999.90;;;16.20;99.90;;;;;;4935078;29;20201;-63
2022/07/30 04:39:56;;;;;;;1999.90;999.90;;;16.20;99.90;;;;;;4935210;29;20222;-64
2022/07/30 04:42:24;;;;;;;1999.90;999.90;;;16.10;99.90;;;;;;4935058;29;20199;-63
2022/07/30 04:44:53;;;;;;;1999.90;999.90;;;16.00;99.90;;;;;;4935052;29;20597;-63
2022/07/30 04:47:20;;;;;;;1999.90;999.90;;;16.00;99.90;;;;;;4934256;29;20787;-64
2022/07/30 04:49:48;;;;;;;1999.90;999.90;;;15.90;99.90;;;;;;4934776;29;20296;-63
2022/07/30 04:52:17;;;;;;;1999.90;999.90;;;15.90;99.90;;;;;;4935022;29;20203;-65
2022/07/30 04:54:51;;;;;;;1999.90;999.90;;;15.80;99.90;;;;;;4934993;29;20220;-65
2022/07/30 04:57:19;;;;;;;1999.90;999.90;;;15.70;99.90;;;;;;4935609;29;20184;-64
2022/07/30 04:59:46;;;;;;;1999.90;999.90;;;15.60;99.90;;;;;;4938462;29;20201;-63
2022/07/30 05:02:17;;;;;;;1999.90;999.90;;;15.60;99.90;;;;;;4938324;29;20570;-64
2022/07/30 05:04:46;;;;;;;1999.90;999.90;;;15.60;99.90;;;;;;4938321;29;20203;-63
2022/07/30 05:07:13;;;;;;;1999.90;999.90;;;15.60;99.90;;;;;;4938539;29;20211;-63
2022/07/30 05:09:41;;;;;;;1999.90;999.90;;;15.60;99.90;;;;;;4938198;29;20206;-63
2022/07/30 05:12:09;;;;;;;1999.90;999.90;;;15.60;99.90;;;;;;4938165;29;20207;-64
2022/07/30 05:14:36;;;;;;;1999.90;999.90;;;15.40;99.90;;;;;;4938517;29;20209;-63
2022/07/30 05:17:03;;;;;;;1999.90;999.90;;;15.40;99.90;;;;;;4937944;29;20230;-64
2022/07/30 05:19:32;;;;;;;1999.90;999.90;;;15.40;99.90;;;;;;4937979;29;20731;-64
2022/07/30 05:21:59;;;;;;;1999.90;999.90;;;15.40;99.90;;;;;;4938313;29;20207;-64
2022/07/30 05:24:26;;;;;;;1999.90;999.90;;;15.70;99.90;;;;;;4938212;29;20209;-63
2022/07/30 05:26:53;;;;;;;1999.90;999.90;;;15.70;99.90;;;;;;4937881;29;20210;-64
2022/07/30 05:29:20;;;;;;;1999.90;999.90;;;15.80;99.90;;;;;;4937777;29;20755;-65
2022/07/30 05:31:48;;;;;;;1999.90;999.90;;;15.90;99.90;;;;;;4938093;29;20204;-65
2022/07/30 05:34:15;;;;;;;1999.90;999.90;;;15.90;99.90;;;;;;4937940;29;20210;-65
2022/07/30 05:36:45;;;;;;;1999.90;999.90;;;16.10;99.90;;;;;;4938174;29;20204;-65
2022/07/30 05:39:12;;;;;;;1999.90;999.90;;;16.40;99.90;;;;;;4937935;29;20208;-66
2022/07/30 05:41:39;;;;;;;1999.90;999.90;;;16.50;99.90;;;;;;4937746;29;20694;-67
2022/07/30 05:44:07;;;;;;;1999.90;999.90;;;16.60;99.90;;;;;;4938027;29;20209;-67
2022/07/30 05:46:34;;;;;;;1999.90;999.90;;;16.70;99.90;;;;;;4937712;29;20217;-66
2022/07/30 05:49:01;;;;;;;1999.90;999.90;;;17.10;99.90;;;;;;4937436;29;20233;-66
2022/07/30 05:51:28;;;;;;;1999.90;999.90;;;17.20;99.90;;;;;;4937838;29;20199;-66
2022/07/30 05:53:56;;;;;;;1999.90;999.90;;;17.10;99.90;;;;;;4937510;29;20672;-65
2022/07/30 05:56:24;;;;;;;1999.90;999.90;;;17.00;99.90;;;;;;4937874;29;20209;-66
2022/07/30 05:58:51;;;;;;;1999.90;999.90;;;17.30;99.90;;;;;;4937362;29;20210;-65
2022/07/30 06:01:18;;;;;;;1999.90;999.90;;;17.50;99.90;;;;;;4938048;29;20205;-65
2022/07/30 06:03:45;;;;;;;1999.90;999.90;;;17.70;99.90;;;;;;4937508;29;20576;-65
2022/07/30 06:06:12;;;;;;;1999.90;999.90;;;17.90;99.90;;;;;;4937619;29;20266;-66
2022/07/30 06:08:39;;;;;;;1999.90;999.90;;;18.30;99.90;;;;;;4937044;29;20685;-66
2022/07/30 06:11:08;;;;;;;1999.90;999.90;;;18.70;99.90;;;;;;4937456;29;20217;-66
2022/07/30 06:13:36;;;;;;;1999.90;999.90;;;19.00;99.90;;;;;;4937382;29;20203;-66
2022/07/30 06:16:04;;;;;;;1999.90;999.90;;;19.20;99.90;;;;;;4936908;29;20199;-66
2022/07/30 06:18:31;;;;;;;1999.90;999.90;;;19.50;99.90;;;;;;4936601;29;20203;-66
2022/07/30 06:20:59;;;;;;;1999.90;999.90;;;19.50;99.90;;;;;;4936949;29;20210;-63
2022/07/30 06:23:26;;;;;;;1999.90;999.90;;;19.30;99.90;;;;;;4936958;29;20203;-64
2022/07/30 06:25:53;;;;;;;1999.90;999.90;;;18.80;99.90;;;;;;4936829;29;20229;-64
2022/07/30 06:28:21;;;;;;;1999.90;999.90;;;18.60;99.90;;;;;;4936785;29;20665;-65
2022/07/30 06:30:49;;;;;;;1999.90;999.90;;;18.20;99.90;;;;;;4936668;29;20207;-66
2022/07/30 06:33:16;;;;;;;1999.90;999.90;;;18.20;99.90;;;;;;4936653;29;20569;-66
2022/07/30 06:35:44;;;;;;;1999.90;999.90;;;18.00;99.90;;;;;;4936689;29;20665;-66
2022/07/30 06:38:11;;;;;;;1999.90;999.90;;;18.30;99.90;;;;;;4936579;29;20204;-67
2022/07/30 06:40:39;;;;;;;1999.90;999.90;;;19.50;99.90;;;;;;4936846;29;20207;-66
2022/07/30 06:43:06;;;;;;;1999.90;999.90;;;20.20;99.90;;;;;;4936624;29;20202;-66
2022/07/30 06:45:34;;;;;;;1999.90;999.90;;;20.40;99.90;;;;;;4936733;29;20226;-65
2022/07/30 06:48:01;;;;;;;1999.90;999.90;;;20.70;99.90;;;;;;4936067;29;20701;-65
2022/07/30 06:50:29;;;;;;;1999.90;999.90;;;20.70;99.90;;;;;;4936753;29;20200;-65
2022/07/30 06:52:56;;;;;;;1999.90;999.90;;;20.60;99.90;;;;;;4936671;29;20202;-60
2022/07/30 06:55:24;;;;;;;1999.90;999.90;;;20.60;99.90;;;;;;4936564;29;20204;-63
2022/07/30 06:57:51;;;;;;;1999.90;999.90;;;20.60;99.90;;;;;;4936532;29;20203;-63
2022/07/30 07:00:19;;;;;;;1999.90;999.90;;;20.60;99.90;;;;;;4936182;29;20692;-63
2022/07/30 07:02:47;;;;;;;1999.90;999.90;;;20.30;99.90;;;;;;4936515;29;20203;-63
2022/07/30 07:05:14;;;;;;;1999.90;999.90;;;20.10;99.90;;;;;;4936352;29;20223;-62
2022/07/30 07:07:42;;;;;;;1999.90;999.90;;;20.10;99.90;;;;;;4936391;29;20204;-63
2022/07/30 07:10:10;;;;;;;1999.90;999.90;;;20.70;99.90;;;;;;4936002;29;20571;-63
2022/07/30 07:12:37;;;;;;;1999.90;999.90;;;20.90;99.90;;;;;;4936038;29;20800;-63
2022/07/30 07:15:05;;;;;;;1999.90;999.90;;;20.60;99.90;;;;;;4935994;29;20628;-63
2022/07/30 07:17:32;;;;;;;1999.90;999.90;;;20.20;99.90;;;;;;4935670;29;20700;-63
2022/07/30 07:20:00;;;;;;;1999.90;999.90;;;20.10;99.90;;;;;;4935458;29;20284;-63
2022/07/30 07:22:27;;;;;;;1999.90;999.90;;;20.60;99.90;;;;;;4935819;29;20199;-63
2022/07/30 07:24:55;;;;;;;1999.90;999.90;;;21.50;99.90;;;;;;4935822;29;20200;-63
2022/07/30 07:27:22;;;;;;;1999.90;999.90;;;22.10;99.90;;;;;;4935649;29;20227;-59
2022/07/30 07:29:49;;;;;;;1999.90;999.90;;;22.90;99.90;;;;;;4935591;29;20677;-63
2022/07/30 07:32:16;;;;;;;1999.90;999.90;;;23.70;99.90;;;;;;4935707;29;20644;-63
2022/07/30 07:34:43;;;;;;;1999.90;999.90;;;24.50;99.90;;;;;;4935661;29;20264;-59
2022/07/30 07:37:11;;;;;;;1999.90;999.90;;;24.10;99.90;;;;;;4935658;29;20210;-63
2022/07/30 07:39:38;;;;;;;1999.90;999.90;;;23.90;99.90;;;;;;4935641;29;20217;-64
2022/07/30 07:42:06;;;;;;;1999.90;999.90;;;23.70;99.90;;;;;;4935526;29;20210;-61
2022/07/30 07:44:33;;;;;;;1999.90;999.90;;;24.00;99.90;;;;;;4935524;29;20567;-65
2022/07/30 07:47:00;;;;;;;1999.90;999.90;;;23.60;99.90;;;;;;4935198;29;20216;-65
2022/07/30 07:49:27;;;;;;;1999.90;999.90;;;23.20;99.90;;;;;;4935225;29;20289;-65
2022/07/30 07:51:54;;;;;;;1999.90;999.90;;;23.20;99.90;;;;;;4935687;29;20209;-65
2022/07/30 07:54:22;;;;;;;1999.90;999.90;;;24.30;99.90;;;;;;4935353;29;20203;-68
2022/07/30 07:56:50;;;;;;;1999.90;999.90;;;24.90;99.90;;;;;;4935320;29;20266;-68
2022/07/30 07:59:18;;;;;;;1999.90;999.90;;;25.30;99.90;;;;;;4935608;29;20208;-66
2022/07/30 08:01:46;;;;;;;1999.90;999.90;;;25.40;1.00;;;;;;4935280;29;20206;-66
2022/07/30 08:04:13;;;;;;;1999.90;999.90;;;25.20;99.90;;;;;;4935258;29;20699;-65
2022/07/30 08:06:40;;;;;;;1999.90;999.90;;;25.20;1.00;;;;;;4935352;29;20226;-66
2022/07/30 08:09:07;;;;;;;1999.90;999.90;;;25.70;1.00;;;;;;4935108;29;20204;-66
2022/07/30 08:11:36;;;;;;;1999.90;999.90;;;25.50;1.00;;;;;;4935113;29;20275;-66
2022/07/30 08:14:03;;;;;;;1999.90;999.90;;;25.80;95.50;;;;;;4935106;29;20203;-66
2022/07/30 08:16:30;;;;;;;1999.90;999.90;;;26.50;1.00;;;;;;4935204;29;20254;-66
2022/07/30 08:18:57;;;;;;;1999.90;999.90;;;25.40;99.90;;;;;;4935561;29;20199;-65
2022/07/30 08:21:24;;;;;;;1999.90;999.90;;;23.20;99.90;;;;;;4935350;29;20199;-65
2022/07/30 08:23:51;;;;;;;1999.90;999.90;;;22.50;99.90;;;;;;4935416;29;20203;-63
2022/07/30 08:26:18;;;;;;;1999.90;999.90;;;22.70;1.00;;;;;;4934981;29;20696;-64
2022/07/30 08:28:47;;;;;;;1999.90;999.90;;;24.40;1.00;;;;;;4935180;29;20195;-63
2022/07/30 08:31:14;;;;;;;1999.90;999.90;;;25.40;1.00;;;;;;4935291;29;20195;-63
2022/07/30 08:33:41;;;;;;;1999.90;999.90;;;25.70;99.90;;;;;;4937832;29;20203;-63
2022/07/30 08:36:08;;;;;;;1999.90;999.90;;;26.20;41.00;;;;;;4939034;29;20199;-63
2022/07/30 08:38:35;;;;;;;1999.90;999.90;;;26.40;1.00;;;;;;4939102;29;20211;-63
2022/07/30 08:41:02;;;;;;;1999.90;999.90;;;25.90;1.00;;;;;;4938828;29;20203;-63
2022/07/30 08:43:30;;;;;;;1999.90;999.90;;;25.00;1.00;;;;;;4939069;29;20204;-66
2022/07/30 08:46:01;;;;;;;1999.90;999.90;;;24.70;99.90;;;;;;4938521;29;20237;-65
2022/07/30 08:48:29;;;;;;;1999.90;999.90;;;24.70;1.00;;;;;;4938619;29;20233;-64
2022/07/30 08:50:57;;;;;;;1999.90;999.90;;;25.50;99.90;;;;;;4938678;29;20212;-63
2022/07/30 08:53:26;;;;;;;1999.90;999.90;;;25.60;1.00;;;;;;4938512;29;20199;-65
2022/07/30 08:55:54;;;;;;;1999.90;999.90;;;26.00;1.00;;;;;;4938784;29;20215;-67
2022/07/30 08:58:27;;;;;;;1999.90;999.90;;;26.30;99.90;;;;;;4938716;29;20195;-66
2022/07/30 09:00:54;;;;;;;1999.90;999.90;;;25.80;99.90;;;;;;4938532;29;20196;-66
2022/07/30 09:03:23;;;;;;;1999.90;999.90;;;25.20;1.00;;;;;;4938417;29;20611;-66
2022/07/30 09:05:50;;;;;;;1999.90;999.90;;;25.10;1.00;;;;;;4938581;29;20204;-64
2022/07/30 09:08:17;;;;;;;1999.90;999.90;;;25.00;1.00;;;;;;4938320;29;20282;-64
2022/07/30 09:10:46;;;;;;;1999.90;999.90;;;24.60;1.00;;;;;;4938674;29;20204;-65
2022/07/30 09:13:30;;;;;;;1999.90;999.90;;;24.80;99.90;;;;;;4938544;29;20207;-65
2022/07/30 09:15:57;;;;;;;1999.90;999.90;;;26.20;90.70;;;;;;4936960;29;20206;-65
2022/07/30 09:18:31;;;;;;;1999.90;999.90;;;26.50;99.90;;;;;;4938049;29;20220;-65
2022/07/30 09:21:00;;;;;;;1999.90;999.90;;;26.20;99.90;;;;;;4938479;29;20229;-65
2022/07/30 09:23:28;;;;;;;1999.90;999.90;;;26.60;99.90;;;;;;4938322;29;20195;-65
2022/07/30 09:25:55;;;;;;;1999.90;999.90;;;27.00;1.00;;;;;;4937991;29;20742;-66
2022/07/30 09:28:30;;;;;;;1999.90;999.90;;;26.40;1.00;;;;;;4938290;29;20199;-65
2022/07/30 09:30:57;;;;;;;1999.90;999.90;;;27.60;1.00;;;;;;4938294;29;20199;-66
2022/07/30 09:33:37;;;;;;;1999.90;999.90;;;28.10;1.00;;;;;;4938088;29;20204;-65
2022/07/30 09:36:06;;;;;;;1999.90;999.90;;;27.90;55.10;;;;;;4938109;29;20179;-67
2022/07/30 09:38:47;;;;;;;1999.90;999.90;;;26.40;99.90;;;;;;4937767;29;20199;-67
2022/07/30 09:41:15;;;;;;;1999.90;999.90;;;25.90;1.00;;;;;;4938147;29;20192;-66
2022/07/30 09:43:44;;;;;;;1999.90;999.90;;;24.80;1.00;;;;;;4937227;29;20211;-66
2022/07/30 09:46:12;;;;;;;1999.90;999.90;;;25.60;19.00;;;;;;4937762;29;20227;-66
2022/07/30 09:48:40;;;;;;;1999.90;999.90;;;25.60;99.90;;;;;;4937475;29;20231;-67
2022/07/30 09:51:08;;;;;;;1999.90;999.90;;;26.10;1.00;;;;;;4937885;29;20204;-64
2022/07/30 09:53:35;;;;;;;1999.90;999.90;;;27.00;1.00;;;;;;4937784;29;20203;-64
2022/07/30 09:56:26;;;;;;;1999.90;999.90;;;26.90;1.00;;;;;;4937698;29;20258;-65
2022/07/30 09:58:53;;;;;;;1999.90;999.90;;;26.00;99.90;;;;;;4937746;29;20188;-63
2022/07/30 10:01:20;;;;;;;1999.90;999.90;;;27.10;1.00;;;;;;4937349;29;20207;-64
2022/07/30 10:03:49;;;;;;;1999.90;999.90;;;26.30;1.00;;;;;;4937670;29;20254;-65
2022/07/30 10:06:16;;;;;;;1999.90;999.90;;;26.40;1.00;;;;;;4937309;29;20226;-65
2022/07/30 10:08:45;;;;;;;1999.90;999.90;;;27.40;1.00;;;;;;4937548;29;20203;-65
2022/07/30 10:11:14;;;;;;;1999.90;999.90;;;28.10;99.90;;;;;;4937490;29;20206;-66
2022/07/30 10:13:42;;;;;;;1999.90;999.90;;;26.80;99.90;;;;;;4937500;29;20203;-64
2022/07/30 10:16:10;;;;;;;1999.90;999.90;;;27.10;99.90;;;;;;4936963;29;20681;-63
2022/07/30 10:18:37;;;;;;;1999.90;999.90;;;26.10;99.90;;;;;;4937227;29;20196;-64
2022/07/30 10:21:06;;;;;;;1999.90;999.90;;;27.10;99.90;;;;;;4937325;29;20207;-64
2022/07/30 10:23:34;;;;;;;1999.90;999.90;;;27.40;99.90;;;;;;4936981;29;20203;-64
2022/07/30 10:26:02;;;;;;;1999.90;999.90;;;26.90;99.90;;;;;;4937161;29;20215;-65
2022/07/30 10:28:31;;;;;;;1999.90;999.90;;;28.00;1.00;;;;;;4936861;29;20978;-65
2022/07/30 10:31:00;;;;;;;1999.90;999.90;;;29.00;99.90;;;;;;4937175;29;20204;-64
2022/07/30 10:33:29;;;;;;;1999.90;999.90;;;29.00;1.00;;;;;;4936668;29;20736;-65
2022/07/30 10:35:57;;;;;;;1999.90;999.90;;;28.40;1.00;;;;;;4937049;29;20207;-64
2022/07/30 10:38:31;;;;;;;1999.90;999.90;;;27.90;1.00;;;;;;4937029;29;20200;-64
2022/07/30 10:41:05;;;;;;;1999.90;999.90;;;28.00;1.00;;;;;;4937043;29;20175;-64
2022/07/30 10:43:54;;;;;;;1999.90;999.90;;;28.80;1.00;;;;;;4936629;29;20206;-64
2022/07/30 10:46:33;;;;;;;1999.90;999.90;;;29.40;1.00;;;;;;4936625;29;20200;-65
2022/07/30 10:49:09;;;;;;;1999.90;999.90;;;29.60;1.00;;;;;;4936433;29;20245;-67
2022/07/30 10:51:44;;;;;;;1999.90;999.90;;;29.70;2.60;;;;;;4936791;29;20194;-66
2022/07/30 10:54:43;;;;;;;1999.90;999.90;;;28.40;99.90;;;;;;4936384;29;20221;-65
2022/07/30 10:57:12;;;;;;;1999.90;999.90;;;28.10;1.00;;;;;;4936174;29;20650;-69
2022/07/30 11:00:12;;;;;;;1999.90;999.90;;;27.30;99.90;;;;;;4936316;29;20195;-66
2022/07/30 11:02:39;;;;;;;1999.90;999.90;;;27.90;1.00;;;;;;4936537;29;20199;-65
2022/07/30 11:05:21;;;;;;;1999.90;999.90;;;29.10;99.90;;;;;;4936252;29;20199;-65
2022/07/30 11:07:49;;;;;;;1999.90;999.90;;;29.30;99.90;;;;;;4936448;29;20255;-65
2022/07/30 11:10:36;;;;;;;1999.90;999.90;;;29.70;76.00;;;;;;4936139;29;20199;-64
2022/07/30 11:13:04;;;;;;;1999.90;999.90;;;29.10;27.00;;;;;;4936431;29;20194;-64
2022/07/30 11:15:52;;;;;;;1999.90;999.90;;;27.90;99.90;;;;;;4935908;29;20208;-64
2022/07/30 11:18:19;;;;;;;1999.90;999.90;;;29.20;1.00;;;;;;4935859;29;20199;-62
2022/07/30 11:21:17;;;;;;;1999.90;999.90;;;29.70;1.00;;;;;;4936204;29;20200;-62
2022/07/30 11:23:45;;;;;;;1999.90;999.90;;;29.70;1.00;;;;;;4936241;29;20238;-62
2022/07/30 11:26:49;;;;;;;1999.90;999.90;;;29.70;1.00;;;;;;4935772;29;20203;-65
2022/07/30 11:29:38;;;;;;;1999.90;999.90;;;30.20;1.00;;;;;;4936119;29;20188;-65
2022/07/30 11:32:30;;;;;;;1999.90;999.90;;;29.80;1.00;;;;;;4935818;29;20649;-64
2022/07/30 11:35:28;;;;;;;1999.90;999.90;;;29.60;1.00;;;;;;4936097;29;20184;-63
2022/07/30 11:38:01;;;;;;;1999.90;999.90;;;28.00;1.00;;;;;;4895727;29;20200;-65
2022/07/30 11:40:30;;;;;;;1999.90;999.90;;;26.90;1.00;;;;;;4895638;29;20655;-66
2022/07/30 11:43:21;;;;;;;1999.90;999.90;;;27.70;1.00;;;;;;4895604;29;20197;-64
2022/07/30 11:45:50;;;;;;;1999.90;999.90;;;28.30;1.00;;;;;;4895460;29;20205;-63
2022/07/30 11:48:19;;;;;;;1999.90;999.90;;;29.10;1.00;;;;;;4895239;29;20241;-64
2022/07/30 11:50:47;;;;;;;1999.90;999.90;;;29.60;1.00;;;;;;4895436;29;20204;-66
2022/07/30 11:53:18;;;;;;;1999.90;999.90;;;29.80;1.00;;;;;;4895391;29;20211;-67
2022/07/30 11:55:51;;;;;;;1999.90;999.90;;;29.50;99.90;;;;;;4895352;29;20185;-66
2022/07/30 11:58:27;;;;;;;1999.90;999.90;;;29.80;1.00;;;;;;4895447;29;20741;-66
2022/07/30 12:00:55;;;;;;;1999.90;999.90;;;28.70;99.90;;;;;;4895376;29;20204;-66
2022/07/30 12:03:25;;;;;;;1999.90;999.90;;;28.30;99.90;;;;;;4895254;29;20231;-65
2022/07/30 12:05:52;;;;;;;1999.90;999.90;;;28.60;99.90;;;;;;4895110;29;20219;-67
2022/07/30 12:08:22;;;;;;;1999.90;999.90;;;28.90;99.90;;;;;;4895098;29;20217;-67
2022/07/30 12:10:57;;;;;;;1999.90;999.90;;;29.20;1.00;;;;;;4895166;29;20255;-66
2022/07/30 12:13:24;;;;;;;1999.90;999.90;;;28.80;1.00;;;;;;4935447;29;20205;-64